Time;durP1;ratioP1;P1;durP2;ratioP2;P2;SDS_P1;SDS_P2;PMS_P1;PMS_P2;Temp;Humidity;BMP_temperature;BMP_pressure;BME280_temperature;BME280_humidity;BME280_pressure;Samples;Min_cycle;Max_cycle;Signal;HPM_P1;HPM_P2
2022/10/11 00:01:40;;;;;;;19.90;4.15;;;5.90;99.90;;;;;;5119180;27;20039;-81
2022/10/11 00:04:05;;;;;;;14.60;3.30;;;5.90;99.90;;;;;;5151448;27;20045;-80
2022/10/11 00:06:31;;;;;;;22.30;3.28;;;5.80;99.90;;;;;;5134137;27;20039;-81
2022/10/11 00:08:57;;;;;;;20.90;4.28;;;5.80;99.90;;;;;;5117433;27;20049;-85
2022/10/11 00:11:22;;;;;;;13.65;2.80;;;5.70;99.90;;;;;;5151090;27;20046;-81
2022/10/11 00:13:48;;;;;;;20.35;3.17;;;5.80;99.90;;;;;;5153021;27;20065;-81
2022/10/11 00:16:14;;;;;;;22.85;3.13;;;5.70;99.90;;;;;;5133307;27;20439;-83
2022/10/11 00:18:40;;;;;;;19.63;3.45;;;5.80;99.90;;;;;;5116874;27;20151;-84
2022/10/11 00:21:10;;;;;;;24.35;3.35;;;5.80;99.90;;;;;;5113611;28;20051;-81
2022/10/11 00:23:36;;;;;;;27.65;3.38;;;5.70;99.90;;;;;;5132636;28;20042;-82
2022/10/11 00:26:04;;;;;;;23.25;2.97;;;5.70;99.90;;;;;;5098974;28;20039;-81
2022/10/11 00:28:30;;;;;;;13.23;2.92;;;5.70;99.90;;;;;;5096881;28;20574;-80
2022/10/11 00:30:56;;;;;;;17.23;2.97;;;5.70;99.90;;;;;;5159669;27;20074;-81
2022/10/11 00:33:22;;;;;;;16.00;2.80;;;5.70;99.90;;;;;;5151677;27;20135;-80
2022/10/11 00:35:48;;;;;;;25.58;4.03;;;5.60;99.90;;;;;;5109878;28;20398;-79
2022/10/11 00:38:14;;;;;;;19.58;2.85;;;5.70;99.90;;;;;;5097071;28;20142;-78
2022/10/11 00:40:40;;;;;;;16.83;2.90;;;5.60;99.90;;;;;;5095299;28;20494;-79
2022/10/11 00:43:18;;;;;;;24.67;4.15;;;5.60;99.90;;;;;;5112892;28;20051;-79
2022/10/11 00:45:55;;;;;;;22.60;2.42;;;5.50;99.90;;;;;;5131746;27;20058;-82
2022/10/11 00:48:29;;;;;;;20.60;3.10;;;5.60;99.90;;;;;;5132504;28;20296;-80
2022/10/11 00:50:57;;;;;;;13.38;2.25;;;5.50;99.90;;;;;;5131583;28;20486;-78
2022/10/11 00:53:23;;;;;;;15.77;2.40;;;5.50;99.90;;;;;;5096586;28;20450;-79
2022/10/11 00:55:54;;;;;;;14.25;2.60;;;5.50;99.90;;;;;;5112699;28;20122;-79
2022/10/11 00:58:22;;;;;;;14.25;2.60;;;5.50;99.90;;;;;;5095381;27;20042;-78
2022/10/11 01:00:48;;;;;;;18.83;3.13;;;5.50;99.90;;;;;;5112822;27;20466;-79
2022/10/11 01:03:18;;;;;;;13.02;2.17;;;5.40;99.90;;;;;;5103839;28;20222;-78
2022/10/11 01:05:45;;;;;;;15.13;2.30;;;5.40;99.90;;;;;;5096966;28;20042;-78
2022/10/11 01:08:11;;;;;;;20.02;2.67;;;5.40;99.90;;;;;;5131138;27;20047;-77
2022/10/11 01:10:37;;;;;;;21.20;2.80;;;5.40;99.90;;;;;;5145724;27;20343;-78
2022/10/11 01:13:18;;;;;;;18.52;2.60;;;5.40;99.90;;;;;;5131497;27;20130;-84
2022/10/11 01:16:02;;;;;;;13.90;3.03;;;5.40;99.90;;;;;;5117096;27;20055;-78
2022/10/11 01:18:39;;;;;;;19.23;3.20;;;5.30;99.90;;;;;;5103898;27;20453;-79
2022/10/11 01:21:45;;;;;;;18.42;2.78;;;5.30;99.90;;;;;;5138573;27;20184;-83
2022/10/11 01:24:47;;;;;;;16.75;2.17;;;5.30;99.90;;;;;;5158306;27;20058;-80
2022/10/11 01:27:46;;;;;;;16.02;2.20;;;5.40;99.90;;;;;;5157791;27;20061;-83
2022/10/11 01:30:30;;;;;;;22.08;2.72;;;5.30;99.90;;;;;;5139526;27;20061;-82
2022/10/11 01:33:02;;;;;;;17.75;2.90;;;5.30;99.90;;;;;;5157931;27;20041;-81
2022/10/11 01:35:59;;;;;;;17.75;3.10;;;5.30;99.90;;;;;;5139873;27;20065;-82
2022/10/11 01:38:49;;;;;;;31.08;2.95;;;5.20;99.90;;;;;;5139746;27;20053;-82
2022/10/11 01:41:26;;;;;;;14.55;2.72;;;5.20;99.90;;;;;;5142228;27;20141;-81
2022/10/11 01:44:00;;;;;;;15.65;2.45;;;5.20;99.90;;;;;;5132487;27;20051;-82
2022/10/11 01:46:27;;;;;;;13.38;2.40;;;5.20;99.90;;;;;;5151612;27;20456;-82
2022/10/11 01:48:56;;;;;;;18.58;2.30;;;5.10;99.90;;;;;;5172194;27;20057;-81
2022/10/11 01:51:28;;;;;;;17.38;2.65;;;5.20;99.90;;;;;;5148979;27;20047;-81
2022/10/11 01:54:00;;;;;;;17.77;2.65;;;5.30;99.90;;;;;;5160437;27;20042;-83
2022/10/11 01:57:13;;;;;;;18.40;2.80;;;5.20;99.90;;;;;;5160721;27;20049;-81
2022/10/11 02:00:04;;;;;;;17.33;2.28;;;5.30;99.90;;;;;;5149866;27;20061;-81
2022/10/11 02:03:11;;;;;;;25.92;2.75;;;5.30;99.90;;;;;;5123130;27;20383;-82
2022/10/11 02:05:46;;;;;;;14.57;2.33;;;5.30;99.90;;;;;;5157909;27;20053;-82
2022/10/11 02:08:45;;;;;;;23.95;3.45;;;5.30;99.90;;;;;;5156990;27;20050;-82
2022/10/11 02:11:29;;;;;;;12.02;2.17;;;5.30;99.90;;;;;;5138113;27;20082;-87
2022/10/11 02:14:24;;;;;;;18.67;2.47;;;5.30;99.90;;;;;;5157648;27;20080;-83
2022/10/11 02:16:52;;;;;;;17.73;2.22;;;5.30;99.90;;;;;;5121457;27;20454;-80
2022/10/11 02:19:22;;;;;;;19.77;2.33;;;5.30;99.90;;;;;;5138048;27;20049;-81
2022/10/11 02:21:54;;;;;;;18.60;2.17;;;5.40;99.90;;;;;;5156662;27;20047;-81
2022/10/11 02:24:32;;;;;;;18.35;2.20;;;5.40;99.90;;;;;;5156606;27;20039;-81
2022/10/11 02:27:00;;;;;;;18.85;3.00;;;5.50;99.90;;;;;;5156843;27;20042;-82
2022/10/11 02:29:29;;;;;;;15.13;2.95;;;5.50;99.90;;;;;;5156413;27;20046;-81
2022/10/11 02:31:57;;;;;;;22.10;2.60;;;5.50;99.90;;;;;;5137920;27;20050;-80
2022/10/11 02:34:35;;;;;;;13.85;2.25;;;5.50;99.90;;;;;;5156325;27;20130;-81
2022/10/11 02:37:05;;;;;;;19.65;2.50;;;5.50;99.90;;;;;;5138513;27;20058;-81
2022/10/11 02:39:45;;;;;;;18.27;2.28;;;5.50;99.90;;;;;;5156057;27;20042;-81
2022/10/11 02:42:19;;;;;;;14.60;2.10;;;5.50;99.90;;;;;;5120879;27;20035;-82
2022/10/11 02:44:58;;;;;;;15.77;2.22;;;5.60;99.90;;;;;;5138426;27;20042;-82
2022/10/11 02:47:24;;;;;;;16.52;3.05;;;5.70;99.90;;;;;;5156816;27;20107;-80
2022/10/11 02:49:50;;;;;;;14.93;2.47;;;5.60;99.90;;;;;;5156843;27;20099;-81
2022/10/11 02:52:16;;;;;;;14.05;2.08;;;5.60;99.90;;;;;;5120582;27;20466;-86
2022/10/11 02:54:41;;;;;;;15.07;2.20;;;5.50;99.90;;;;;;5086480;27;20046;-82
2022/10/11 02:57:07;;;;;;;13.80;2.45;;;5.50;99.90;;;;;;5138207;27;20091;-80
2022/10/11 02:59:33;;;;;;;15.40;2.10;;;5.50;99.90;;;;;;5156844;27;20520;-83
2022/10/11 03:01:59;;;;;;;16.80;2.63;;;5.40;99.90;;;;;;5104053;27;20114;-80
2022/10/11 03:04:24;;;;;;;12.43;2.28;;;5.30;99.90;;;;;;5138552;27;20052;-82
2022/10/11 03:06:50;;;;;;;9.57;2.15;;;5.30;99.90;;;;;;5157492;27;20046;-80
2022/10/11 03:09:16;;;;;;;17.33;2.33;;;5.30;99.90;;;;;;5137607;27;20039;-86
2022/10/11 03:11:41;;;;;;;16.75;2.30;;;5.20;99.90;;;;;;5137567;27;20047;-82
2022/10/11 03:14:07;;;;;;;21.42;2.72;;;5.20;99.90;;;;;;5133980;27;20555;-82
2022/10/11 03:16:33;;;;;;;19.48;2.25;;;5.20;99.90;;;;;;5134641;27;20086;-82
2022/10/11 03:18:58;;;;;;;12.68;2.08;;;5.10;99.90;;;;;;5135755;27;20356;-83
2022/10/11 03:21:24;;;;;;;14.25;2.47;;;5.10;99.90;;;;;;5133871;27;20331;-81
2022/10/11 03:23:50;;;;;;;13.48;2.25;;;5.10;99.90;;;;;;5134062;27;20043;-81
2022/10/11 03:26:16;;;;;;;15.52;2.53;;;5.10;99.90;;;;;;5134587;27;20146;-81
2022/10/11 03:28:41;;;;;;;16.33;2.58;;;5.00;99.90;;;;;;5133778;27;20062;-82
2022/10/11 03:31:07;;;;;;;17.80;2.45;;;5.10;99.90;;;;;;5135340;27;20487;-81
2022/10/11 03:33:33;;;;;;;15.02;2.42;;;5.10;99.90;;;;;;5115698;27;20043;-81
2022/10/11 03:35:58;;;;;;;12.77;2.50;;;5.00;99.90;;;;;;5116501;27;20473;-81
2022/10/11 03:38:24;;;;;;;15.55;2.20;;;4.90;99.90;;;;;;5132955;27;20043;-81
2022/10/11 03:40:50;;;;;;;15.98;2.75;;;5.00;99.90;;;;;;5135129;27;20054;-81
2022/10/11 03:43:16;;;;;;;13.18;2.47;;;4.90;99.90;;;;;;5135017;27;20143;-80
2022/10/11 03:45:42;;;;;;;19.65;2.40;;;4.90;99.90;;;;;;5133557;27;20034;-81
2022/10/11 03:48:08;;;;;;;19.23;2.53;;;4.90;99.90;;;;;;5133226;27;20042;-80
2022/10/11 03:50:35;;;;;;;15.13;2.38;;;4.90;99.90;;;;;;5133916;27;20082;-81
2022/10/11 03:53:03;;;;;;;16.17;2.60;;;4.80;99.90;;;;;;5135110;27;20336;-82
2022/10/11 03:55:28;;;;;;;16.45;2.28;;;4.80;99.90;;;;;;5115953;27;20288;-80
2022/10/11 03:57:54;;;;;;;18.67;2.28;;;4.80;99.90;;;;;;5134903;27;20039;-82
2022/10/11 04:00:20;;;;;;;14.63;2.75;;;4.80;99.90;;;;;;5134333;27;20126;-82
2022/10/11 04:02:45;;;;;;;13.13;2.38;;;4.80;99.90;;;;;;5115799;28;20420;-79
2022/10/11 04:05:11;;;;;;;16.08;2.40;;;4.80;99.90;;;;;;5116911;27;20134;-80
2022/10/11 04:07:37;;;;;;;14.18;3.13;;;4.80;99.90;;;;;;5133246;27;20039;-82
2022/10/11 04:10:04;;;;;;;14.75;2.33;;;4.80;99.90;;;;;;5132480;27;20058;-80
2022/10/11 04:12:30;;;;;;;9.88;1.98;;;4.80;99.90;;;;;;5133285;27;20050;-80
2022/10/11 04:14:56;;;;;;;10.45;2.22;;;4.80;99.90;;;;;;5135910;27;20054;-80
2022/10/11 04:17:22;;;;;;;8.45;2.03;;;4.90;99.90;;;;;;5136488;27;20051;-81
2022/10/11 04:19:47;;;;;;;14.50;3.42;;;4.90;99.90;;;;;;5135998;27;20069;-81
2022/10/11 04:22:13;;;;;;;17.63;2.45;;;4.80;99.90;;;;;;5118838;27;20446;-81
2022/10/11 04:24:39;;;;;;;15.88;3.28;;;4.80;99.90;;;;;;5119235;27;20076;-82
2022/10/11 04:27:05;;;;;;;12.73;2.10;;;4.80;99.90;;;;;;5118853;27;20118;-82
2022/10/11 04:29:30;;;;;;;19.45;2.90;;;4.80;99.90;;;;;;5154347;27;20050;-81
2022/10/11 04:31:56;;;;;;;14.90;3.58;;;4.80;99.90;;;;;;5154646;27;20053;-81
2022/10/11 04:34:22;;;;;;;11.10;2.38;;;4.90;99.90;;;;;;5102027;27;20394;-81
2022/10/11 04:36:47;;;;;;;12.40;2.22;;;4.90;99.90;;;;;;5119639;27;20117;-80
2022/10/11 04:39:13;;;;;;;12.73;2.50;;;4.90;99.90;;;;;;5118821;27;20498;-81
2022/10/11 04:41:39;;;;;;;28.35;3.75;;;5.00;99.90;;;;;;5154652;27;20043;-81
2022/10/11 04:44:05;;;;;;;17.25;3.33;;;5.00;99.90;;;;;;5136448;27;20484;-81
2022/10/11 04:46:31;;;;;;;19.85;3.33;;;5.00;99.90;;;;;;5160010;27;20103;-83
2022/10/11 04:48:56;;;;;;;18.60;4.45;;;5.00;99.90;;;;;;5123234;27;20046;-82
2022/10/11 04:51:23;;;;;;;17.58;3.67;;;5.00;99.90;;;;;;5160119;27;20054;-81
2022/10/11 04:53:49;;;;;;;14.15;3.35;;;5.00;99.90;;;;;;5124150;27;20443;-81
2022/10/11 04:56:17;;;;;;;16.40;4.20;;;5.00;99.90;;;;;;5139925;27;20043;-81
2022/10/11 04:58:46;;;;;;;21.67;3.90;;;4.90;99.90;;;;;;5141198;27;20069;-82
2022/10/11 05:01:12;;;;;;;24.63;4.00;;;5.00;99.90;;;;;;5139761;27;20046;-83
2022/10/11 05:03:38;;;;;;;20.80;3.97;;;5.00;99.90;;;;;;5143045;27;20054;-81
2022/10/11 05:06:04;;;;;;;14.00;3.60;;;5.00;99.90;;;;;;5125016;27;20095;-82
2022/10/11 05:08:30;;;;;;;20.02;3.45;;;5.00;99.90;;;;;;5141277;27;20043;-80
2022/10/11 05:11:05;;;;;;;22.00;4.40;;;5.00;99.90;;;;;;5139490;27;20490;-82
2022/10/11 05:13:32;;;;;;;22.88;4.47;;;5.00;99.90;;;;;;5158317;27;20047;-80
2022/10/11 05:15:58;;;;;;;18.02;3.85;;;5.00;99.90;;;;;;5139480;27;20082;-81
2022/10/11 05:18:24;;;;;;;19.75;3.80;;;5.00;99.90;;;;;;5139183;27;20066;-83
2022/10/11 05:21:01;;;;;;;20.08;4.03;;;5.00;99.90;;;;;;5138758;27;20076;-82
2022/10/11 05:23:28;;;;;;;19.73;4.28;;;5.00;99.90;;;;;;5139999;27;20470;-80
2022/10/11 05:25:54;;;;;;;28.95;4.68;;;5.00;99.90;;;;;;5139110;27;20162;-83
2022/10/11 05:28:20;;;;;;;20.85;4.38;;;5.10;99.90;;;;;;5121640;27;20453;-81
2022/10/11 05:30:46;;;;;;;14.68;4.18;;;5.10;99.90;;;;;;5122361;27;20125;-81
2022/10/11 05:33:11;;;;;;;13.57;4.60;;;5.00;99.90;;;;;;5139158;27;20481;-81
2022/10/11 05:35:37;;;;;;;16.40;4.07;;;5.00;99.90;;;;;;5139279;27;20054;-79
2022/10/11 05:38:03;;;;;;;16.48;4.60;;;5.00;99.90;;;;;;5138929;27;20039;-80
2022/10/11 05:40:28;;;;;;;23.75;4.85;;;5.00;99.90;;;;;;5139164;27;20046;-80
2022/10/11 05:42:54;;;;;;;22.33;4.78;;;5.00;99.90;;;;;;5138795;27;20066;-81
2022/10/11 05:45:20;;;;;;;17.83;4.65;;;5.00;99.90;;;;;;5138756;27;20043;-80
2022/10/11 05:47:46;;;;;;;17.48;4.85;;;5.00;99.90;;;;;;5157841;27;20046;-79
2022/10/11 05:50:11;;;;;;;17.35;4.30;;;5.00;99.90;;;;;;5138673;27;20466;-79
2022/10/11 05:52:37;;;;;;;19.08;4.65;;;5.00;99.90;;;;;;5156839;27;20074;-82
2022/10/11 05:55:03;;;;;;;18.30;4.13;;;4.90;99.90;;;;;;5157351;27;20042;-81
2022/10/11 05:57:29;;;;;;;18.63;4.63;;;4.90;99.90;;;;;;5156608;27;20486;-79
2022/10/11 05:59:55;;;;;;;23.27;4.85;;;5.00;99.90;;;;;;5121403;27;20054;-79
2022/10/11 06:02:20;;;;;;;19.83;5.43;;;5.00;99.90;;;;;;5156852;27;20043;-79
2022/10/11 06:04:46;;;;;;;22.88;4.85;;;5.00;99.90;;;;;;5157382;27;20054;-80
2022/10/11 06:07:12;;;;;;;16.40;4.85;;;5.00;99.90;;;;;;5156490;27;20049;-80
2022/10/11 06:09:38;;;;;;;16.95;5.45;;;5.00;99.90;;;;;;5138280;27;20068;-83
2022/10/11 06:12:04;;;;;;;23.80;5.10;;;5.10;99.90;;;;;;5121929;27;20046;-79
2022/10/11 06:14:30;;;;;;;16.35;5.15;;;5.00;99.90;;;;;;5137670;27;20054;-80
2022/10/11 06:16:56;;;;;;;15.48;5.32;;;5.00;99.90;;;;;;5156908;27;20046;-81
2022/10/11 06:19:22;;;;;;;23.95;5.10;;;5.10;99.90;;;;;;5157339;27;20074;-79
2022/10/11 06:21:47;;;;;;;20.75;5.20;;;5.00;99.90;;;;;;5156799;27;20043;-80
2022/10/11 06:24:13;;;;;;;15.55;5.05;;;5.10;99.90;;;;;;5138245;27;20035;-82
2022/10/11 06:26:39;;;;;;;19.48;4.70;;;5.00;99.90;;;;;;5157008;27;20046;-83
2022/10/11 06:29:05;;;;;;;21.88;4.32;;;5.10;99.90;;;;;;5157997;27;20038;-79
2022/10/11 06:31:31;;;;;;;14.82;4.63;;;5.10;99.90;;;;;;5139384;27;20043;-82
2022/10/11 06:33:58;;;;;;;21.15;4.80;;;5.10;99.90;;;;;;5157833;27;20091;-82
2022/10/11 06:36:24;;;;;;;21.55;4.78;;;5.20;99.90;;;;;;5139182;27;20038;-81
2022/10/11 06:38:54;;;;;;;23.37;4.70;;;5.20;99.90;;;;;;5139780;27;20038;-80
2022/10/11 06:41:25;;;;;;;19.23;4.68;;;5.20;99.90;;;;;;5138984;27;20130;-80
2022/10/11 06:43:51;;;;;;;25.77;4.60;;;5.20;99.90;;;;;;5139096;27;20050;-80
2022/10/11 06:46:18;;;;;;;20.23;4.38;;;5.30;99.90;;;;;;5120690;27;20073;-80
2022/10/11 06:48:46;;;;;;;20.77;5.20;;;5.30;99.90;;;;;;5121535;27;20043;-81
2022/10/11 06:51:13;;;;;;;20.67;4.63;;;5.30;99.90;;;;;;5156095;27;20051;-81
2022/10/11 06:53:39;;;;;;;;;;;5.40;99.90;;;;;;5137839;27;20039;-84
2022/10/11 06:56:08;;;;;;;19.35;4.15;;;5.40;99.90;;;;;;5120400;27;20342;-80
2022/10/11 06:58:34;;;;;;;17.52;4.57;;;5.50;99.90;;;;;;5156728;27;20039;-82
2022/10/11 07:01:01;;;;;;;22.35;4.53;;;5.50;99.90;;;;;;5137571;27;20043;-82
2022/10/11 07:03:28;;;;;;;21.58;4.65;;;5.50;99.90;;;;;;5155936;27;20159;-81
2022/10/11 07:06:02;;;;;;;18.48;4.68;;;5.60;99.90;;;;;;5138139;27;20043;-82
2022/10/11 07:08:28;;;;;;;18.80;4.82;;;5.60;99.90;;;;;;5121382;27;20051;-81
2022/10/11 07:11:00;;;;;;;19.20;4.43;;;5.60;99.90;;;;;;5156823;27;20038;-82
2022/10/11 07:13:27;;;;;;;15.52;4.20;;;5.60;99.90;;;;;;5156827;27;20054;-81
2022/10/11 07:15:52;;;;;;;21.23;4.88;;;5.70;99.90;;;;;;5139322;27;20050;-82
2022/10/11 07:18:18;;;;;;;25.83;5.78;;;5.70;99.90;;;;;;5151138;27;20066;-81
2022/10/11 07:20:44;;;;;;;25.77;4.90;;;5.70;99.90;;;;;;5155547;27;20066;-81
2022/10/11 07:23:09;;;;;;;20.40;4.72;;;5.80;99.90;;;;;;5153608;27;20057;-82
2022/10/11 07:25:35;;;;;;;15.95;4.45;;;5.80;99.90;;;;;;5146710;27;20047;-82
2022/10/11 07:28:01;;;;;;;25.70;4.43;;;5.80;99.90;;;;;;5158748;27;20050;-82
2022/10/11 07:30:27;;;;;;;15.43;4.10;;;5.90;99.90;;;;;;5158472;27;20046;-81
2022/10/11 07:32:52;;;;;;;19.52;4.68;;;5.90;99.90;;;;;;5157445;27;20474;-81
2022/10/11 07:35:18;;;;;;;19.77;4.40;;;5.90;99.90;;;;;;5137599;27;20486;-81
2022/10/11 07:37:44;;;;;;;17.35;4.72;;;5.90;99.90;;;;;;5137118;27;20129;-82
2022/10/11 07:40:10;;;;;;;17.83;5.03;;;6.00;99.90;;;;;;5154925;27;20049;-81
2022/10/11 07:42:36;;;;;;;24.17;4.85;;;6.10;99.90;;;;;;5136672;27;20462;-82
2022/10/11 07:45:03;;;;;;;23.60;4.25;;;6.10;99.90;;;;;;5155017;27;20077;-80
2022/10/11 07:47:28;;;;;;;17.48;4.40;;;6.10;99.90;;;;;;5102638;27;20054;-82
2022/10/11 07:49:54;;;;;;;23.63;5.07;;;6.20;99.90;;;;;;5137422;27;20035;-83
2022/10/11 07:52:20;;;;;;;20.40;5.22;;;6.20;99.90;;;;;;5155642;27;20038;-82
2022/10/11 07:54:48;;;;;;;22.27;4.53;;;6.20;99.90;;;;;;5102910;27;20111;-85
2022/10/11 07:57:14;;;;;;;19.58;4.75;;;6.30;99.90;;;;;;5102973;27;20042;-83
2022/10/11 07:59:40;;;;;;;23.27;4.28;;;6.40;99.90;;;;;;5137020;27;20045;-82
2022/10/11 08:02:13;;;;;;;21.33;5.05;;;6.50;99.90;;;;;;5137766;27;20102;-81
2022/10/11 08:04:39;;;;;;;18.80;4.22;;;6.50;99.90;;;;;;5130259;27;20077;-82
2022/10/11 08:07:05;;;;;;;23.02;5.00;;;6.60;99.90;;;;;;5155338;27;20050;-81
2022/10/11 08:09:31;;;;;;;17.65;3.95;;;6.70;99.90;;;;;;5171028;27;20046;-81
2022/10/11 08:11:57;;;;;;;23.38;4.30;;;6.80;99.90;;;;;;5141799;27;20071;-79
2022/10/11 08:14:22;;;;;;;19.30;4.90;;;6.90;99.90;;;;;;5144459;27;20078;-80
2022/10/11 08:16:48;;;;;;;19.38;4.00;;;6.90;99.90;;;;;;5164521;27;20370;-82
2022/10/11 08:19:14;;;;;;;16.80;4.00;;;6.90;99.90;;;;;;5137179;27;20482;-80
2022/10/11 08:21:41;;;;;;;24.95;4.18;;;7.10;99.90;;;;;;5141575;27;20435;-81
2022/10/11 08:24:07;;;;;;;16.10;4.28;;;7.20;99.90;;;;;;5166395;27;20147;-82
2022/10/11 08:26:33;;;;;;;18.90;4.38;;;7.20;99.90;;;;;;5151925;27;20107;-81
2022/10/11 08:29:03;;;;;;;19.15;3.28;;;7.40;99.90;;;;;;5152430;27;20050;-82
2022/10/11 08:31:30;;;;;;;22.77;4.40;;;7.40;99.90;;;;;;5141099;27;20121;-81
2022/10/11 08:33:56;;;;;;;18.75;3.90;;;7.50;99.90;;;;;;5154941;27;20149;-82
2022/10/11 08:36:22;;;;;;;20.08;4.63;;;7.60;99.90;;;;;;5161544;27;20039;-82
2022/10/11 08:38:47;;;;;;;21.38;4.53;;;7.70;99.90;;;;;;5156662;27;20125;-81
2022/10/11 08:41:26;;;;;;;14.05;3.78;;;7.80;99.90;;;;;;5140630;27;20390;-84
2022/10/11 08:44:15;;;;;;;20.10;4.25;;;7.90;99.90;;;;;;5162991;27;20070;-79
2022/10/11 08:46:47;;;;;;;19.33;4.28;;;8.00;99.90;;;;;;5156218;27;20367;-82
2022/10/11 08:49:23;;;;;;;20.20;4.30;;;8.10;99.90;;;;;;5136703;27;20482;-81
2022/10/11 08:51:59;;;;;;;18.77;4.65;;;8.20;99.90;;;;;;5102876;27;20051;-81
2022/10/11 08:54:47;;;;;;;28.02;4.05;;;8.50;99.90;;;;;;5136076;27;20057;-82
2022/10/11 08:57:19;;;;;;;19.55;4.63;;;8.60;99.90;;;;;;5154230;27;20061;-82
2022/10/11 08:59:47;;;;;;;25.17;3.72;;;8.70;99.90;;;;;;5136012;27;20121;-83
2022/10/11 09:02:19;;;;;;;20.73;3.63;;;8.80;99.90;;;;;;5153841;27;20058;-80
2022/10/11 09:04:48;;;;;;;22.20;3.47;;;8.90;99.90;;;;;;5154797;27;20066;-82
2022/10/11 09:07:26;;;;;;;22.52;3.25;;;9.00;99.90;;;;;;5153893;27;20043;-80
2022/10/11 09:10:31;;;;;;;15.18;3.10;;;9.10;99.90;;;;;;5153673;27;20134;-82
2022/10/11 09:13:30;;;;;;;13.82;2.88;;;9.20;99.90;;;;;;5135638;27;20100;-81
2022/10/11 09:16:09;;;;;;;22.70;2.53;;;9.30;99.90;;;;;;5135359;27;20089;-82
2022/10/11 09:19:12;;;;;;;25.35;2.90;;;9.40;99.90;;;;;;5154903;27;20082;-80
2022/10/11 09:21:56;;;;;;;21.75;2.72;;;9.60;99.90;;;;;;5115991;27;20137;-82
2022/10/11 09:24:27;;;;;;;19.60;2.67;;;9.60;99.90;;;;;;5154786;27;20356;-81
2022/10/11 09:26:55;;;;;;;19.13;2.15;;;9.70;99.90;;;;;;5154316;27;20378;-82
2022/10/11 09:29:57;;;;;;;19.85;3.03;;;9.80;99.90;;;;;;5135850;27;20054;-81
2022/10/11 09:32:29;;;;;;;19.20;2.30;;;9.80;99.90;;;;;;5137841;27;20042;-80
2022/10/11 09:35:08;;;;;;;15.32;2.58;;;9.90;99.90;;;;;;5138957;27;20058;-81
2022/10/11 09:38:12;;;;;;;20.48;2.25;;;10.00;99.90;;;;;;5157565;27;20085;-83
2022/10/11 09:40:50;;;;;;;18.40;2.80;;;10.10;99.90;;;;;;5102074;27;20155;-78
2022/10/11 09:43:16;;;;;;;14.30;2.20;;;10.20;99.90;;;;;;5138658;27;20474;-79
2022/10/11 09:45:44;;;;;;;12.13;2.40;;;10.20;99.90;;;;;;5157488;27;20039;-81
2022/10/11 09:48:19;;;;;;;13.57;2.20;;;10.20;99.90;;;;;;5139346;27;20439;-83
2022/10/11 09:50:45;;;;;;;18.38;2.33;;;10.30;99.90;;;;;;5139235;27;20043;-81
2022/10/11 09:53:11;;;;;;;23.90;3.92;;;10.30;99.90;;;;;;5138981;27;20489;-80
2022/10/11 09:56:00;;;;;;;18.70;2.42;;;10.40;99.90;;;;;;5157178;27;20061;-82
2022/10/11 09:58:29;;;;;;;26.52;2.38;;;10.40;99.90;;;;;;5157918;27;20111;-82
2022/10/11 10:01:00;;;;;;;19.35;2.30;;;10.50;99.90;;;;;;5157551;27;20043;-80
2022/10/11 10:03:30;;;;;;;15.90;2.30;;;10.60;99.90;;;;;;5121607;27;20069;-80
2022/10/11 10:06:16;;;;;;;19.60;2.53;;;10.70;99.90;;;;;;5156904;27;20092;-82
2022/10/11 10:08:44;;;;;;;13.93;1.50;;;10.70;99.90;;;;;;5121939;27;20053;-82
2022/10/11 10:11:10;;;;;;;14.98;1.67;;;10.80;99.90;;;;;;5138538;27;20043;-79
2022/10/11 10:13:42;;;;;;;14.45;1.88;;;10.80;99.90;;;;;;5138755;27;20089;-79
2022/10/11 10:16:23;;;;;;;21.98;1.90;;;10.90;99.90;;;;;;5156742;27;20094;-81
2022/10/11 10:18:56;;;;;;;15.27;1.98;;;11.00;99.90;;;;;;5157153;27;20069;-79
2022/10/11 10:21:42;;;;;;;16.65;2.25;;;11.20;99.90;;;;;;5138771;27;20046;-79
2022/10/11 10:24:18;;;;;;;19.10;1.58;;;11.20;99.90;;;;;;5138840;27;20094;-75
2022/10/11 10:27:09;;;;;;;19.95;2.17;;;11.30;99.90;;;;;;5138621;27;20046;-77
2022/10/11 10:29:36;;;;;;;15.90;1.73;;;11.30;99.90;;;;;;5121304;27;20095;-78
2022/10/11 10:32:23;;;;;;;14.27;1.60;;;11.40;99.90;;;;;;5120924;27;20099;-80
2022/10/11 10:35:12;;;;;;;12.23;1.42;;;11.50;99.90;;;;;;5157225;27;20043;-81
2022/10/11 10:37:42;;;;;;;10.20;1.42;;;11.60;99.90;;;;;;5139143;27;20046;-81
2022/10/11 10:40:33;;;;;;;11.77;1.13;;;11.60;99.90;;;;;;5138152;27;20042;-80
2022/10/11 10:42:59;;;;;;;18.63;1.30;;;11.80;99.90;;;;;;5124347;27;20145;-81
2022/10/11 10:45:49;;;;;;;15.20;1.65;;;11.80;99.90;;;;;;5121302;27;20082;-82
2022/10/11 10:48:33;;;;;;;23.65;1.85;;;11.90;99.90;;;;;;5110063;27;20443;-82
2022/10/11 10:51:16;;;;;;;10.80;1.23;;;11.90;99.90;;;;;;5122179;27;20090;-83
2022/10/11 10:54:12;;;;;;;13.40;1.13;;;11.90;99.90;;;;;;5156936;27;20043;-84
2022/10/11 10:56:54;;;;;;;21.10;1.98;;;12.10;99.90;;;;;;5122504;27;20089;-84
2022/10/11 10:59:49;;;;;;;15.52;1.35;;;12.10;99.90;;;;;;5157721;27;20051;-86
2022/10/11 11:02:30;;;;;;;19.42;1.30;;;12.10;99.90;;;;;;5116758;27;20055;-84
2022/10/11 11:05:35;;;;;;;11.63;1.35;;;12.20;99.90;;;;;;5140821;27;20382;-81
2022/10/11 11:08:22;;;;;;;16.85;1.20;;;12.40;99.90;;;;;;5134787;27;20061;-84
2022/10/11 11:11:19;;;;;;;16.25;1.30;;;12.40;99.90;;;;;;5140667;27;20087;-80
2022/10/11 11:13:52;;;;;;;19.65;1.25;;;12.50;99.90;;;;;;5157031;27;20054;-84
2022/10/11 11:16:30;;;;;;;15.30;1.02;;;12.50;99.90;;;;;;5121998;27;20050;-84
2022/10/11 11:19:04;;;;;;;17.17;0.98;;;12.60;99.90;;;;;;5156161;27;20339;-84
2022/10/11 11:22:17;;;;;;;14.10;1.45;;;12.70;99.90;;;;;;5120599;27;20501;-85
2022/10/11 11:24:58;;;;;;;13.68;1.00;;;12.90;99.90;;;;;;5053001;28;20432;-83
2022/10/11 11:27:33;;;;;;;13.80;1.45;;;13.00;99.90;;;;;;5051668;28;20466;-83
2022/10/11 11:30:04;;;;;;;11.18;1.25;;;13.20;99.90;;;;;;5100721;27;20398;-85
2022/10/11 11:32:39;;;;;;;11.70;1.05;;;13.30;99.90;;;;;;5137995;27;20051;-80
2022/10/11 11:35:26;;;;;;;17.30;1.00;;;13.30;99.90;;;;;;5157459;27;20428;-82
2022/10/11 11:37:57;;;;;;;22.13;1.20;;;13.40;99.90;;;;;;5137937;27;20476;-84
2022/10/11 11:40:41;;;;;;;14.45;0.98;;;13.50;99.90;;;;;;5138821;27;20054;-82
2022/10/11 11:43:24;;;;;;;14.85;0.90;;;13.50;99.90;;;;;;5157181;27;20050;-84
2022/10/11 11:45:55;;;;;;;11.52;1.20;;;13.60;99.90;;;;;;5139257;27;20047;-84
2022/10/11 11:48:24;;;;;;;7.55;0.82;;;13.60;99.90;;;;;;5138697;27;20088;-83
2022/10/11 11:51:16;;;;;;;13.18;1.15;;;13.70;99.90;;;;;;5137453;27;20043;-83
2022/10/11 11:54:05;;;;;;;11.77;1.13;;;13.90;99.90;;;;;;5081841;27;20051;-84
2022/10/11 11:57:21;;;;;;;12.13;0.90;;;14.00;99.90;;;;;;5138818;27;20058;-84
2022/10/11 12:00:03;;;;;;;9.80;1.15;;;14.10;99.90;;;;;;5131516;27;20413;-85
2022/10/11 12:02:28;;;;;;;16.23;1.00;;;14.20;99.90;;;;;;5156511;27;20056;-84
2022/10/11 12:04:55;;;;;;;14.25;1.25;;;14.10;99.90;;;;;;5137637;27;20046;-84
2022/10/11 12:07:23;;;;;;;11.32;1.10;;;14.20;99.90;;;;;;5105093;27;20051;-82
2022/10/11 12:09:53;;;;;;;12.77;0.80;;;14.20;99.90;;;;;;5137981;27;20103;-84
2022/10/11 12:12:32;;;;;;;11.23;1.10;;;14.30;99.90;;;;;;5120504;27;20129;-85
2022/10/11 12:15:09;;;;;;;13.25;1.13;;;14.40;99.90;;;;;;5154643;27;20051;-82
2022/10/11 12:17:56;;;;;;;9.68;0.98;;;14.40;99.90;;;;;;5155694;27;20058;-83
2022/10/11 12:20:26;;;;;;;11.05;1.05;;;14.50;99.90;;;;;;5156574;27;20043;-84
2022/10/11 12:23:01;;;;;;;8.30;0.70;;;14.60;99.90;;;;;;5136966;27;20043;-74
2022/10/11 12:25:27;;;;;;;11.73;0.98;;;14.70;99.90;;;;;;5119412;27;20070;-81
2022/10/11 12:27:59;;;;;;;18.67;1.43;;;14.80;99.90;;;;;;5120262;27;20077;-79
2022/10/11 12:30:43;;;;;;;13.35;1.20;;;14.80;99.90;;;;;;5156617;27;20043;-82
2022/10/11 12:33:17;;;;;;;20.38;1.33;;;14.70;99.90;;;;;;5157909;27;20038;-83
2022/10/11 12:36:20;;;;;;;11.88;0.77;;;14.60;99.90;;;;;;5138944;27;20123;-78
2022/10/11 12:39:06;;;;;;;10.82;0.80;;;14.60;99.90;;;;;;5139369;27;20578;-82
2022/10/11 12:44:25;;;;;;;12.30;1.00;;;14.50;99.90;;;;;;5138220;27;20042;-83
2022/10/11 12:46:53;;;;;;;15.63;1.63;;;14.60;99.90;;;;;;5137824;27;20043;-82
2022/10/11 12:49:46;;;;;;;13.02;1.20;;;14.60;99.90;;;;;;5120072;27;20050;-89
2022/10/11 12:52:15;;;;;;;12.77;0.95;;;14.60;99.90;;;;;;5137922;27;20034;-84
2022/10/11 12:55:09;;;;;;;10.95;0.80;;;14.60;99.90;;;;;;5139268;27;20147;-85
2022/10/11 12:57:57;;;;;;;16.33;1.00;;;14.70;99.90;;;;;;5150339;27;20053;-82
2022/10/11 13:00:29;;;;;;;11.35;0.90;;;14.70;99.90;;;;;;5153423;27;20056;-85
2022/10/11 13:03:17;;;;;;;14.88;1.00;;;14.70;99.90;;;;;;5136565;27;20047;-82
2022/10/11 13:05:45;;;;;;;10.73;0.73;;;14.80;99.90;;;;;;5136794;27;20074;-80
2022/10/11 13:08:24;;;;;;;13.20;1.15;;;14.80;99.90;;;;;;5138447;27;20051;-79
2022/10/11 13:10:51;;;;;;;10.13;0.80;;;14.90;99.90;;;;;;5154374;27;20049;-82
2022/10/11 13:13:21;;;;;;;9.90;0.80;;;14.80;99.90;;;;;;5150326;27;20057;-79
2022/10/11 13:15:47;;;;;;;10.82;0.90;;;14.80;99.90;;;;;;5167304;27;20057;-84